Time;durP1;ratioP1;P1;durP2;ratioP2;P2;SDS_P1;SDS_P2;PMS_P1;PMS_P2;Temp;Humidity;BMP_temperature;BMP_pressure;BME280_temperature;BME280_humidity;BME280_pressure;Samples;Min_cycle;Max_cycle;Signal;HPM_P1;HPM_P2
2023/07/04 00:00:00;;;;;;;1.45;0.98;;;;;;;17.01;100.00;98322.97;4137294;28;20236;-52
2023/07/04 00:02:03;;;;;;;2.38;1.80;;;;;;;17.03;100.00;98329.00;4141024;28;20216;-52
2023/07/04 00:04:07;;;;;;;1.48;1.38;;;;;;;16.95;100.00;98318.63;4139475;28;20264;-53
2023/07/04 00:06:15;;;;;;;1.52;1.38;;;;;;;16.90;100.00;98317.88;4140534;28;20229;-52
2023/07/04 00:08:18;;;;;;;2.05;1.65;;;;;;;16.91;100.00;98323.09;4152088;28;20236;-52
2023/07/04 00:10:20;;;;;;;1.70;1.38;;;;;;;16.78;100.00;98323.81;4135450;28;20230;-53
2023/07/04 00:12:22;;;;;;;1.58;1.25;;;;;;;16.86;100.00;98322.31;4138254;28;20294;-52
2023/07/04 00:14:23;;;;;;;2.42;1.60;;;;;;;16.86;100.00;98319.56;4137834;28;20205;-53
2023/07/04 00:16:26;;;;;;;1.42;1.30;;;;;;;16.92;100.00;98319.22;4136557;28;20225;-52
2023/07/04 00:18:28;;;;;;;2.20;1.33;;;;;;;16.92;100.00;98313.69;4141120;28;20209;-52
2023/07/04 00:20:33;;;;;;;3.00;1.60;;;;;;;16.84;100.00;98317.09;4137898;28;20763;-52
2023/07/04 00:22:36;;;;;;;2.55;1.60;;;;;;;16.83;100.00;98307.16;4137524;28;20221;-52
2023/07/04 00:24:38;;;;;;;1.77;1.05;;;;;;;16.85;100.00;98312.38;4138415;28;20218;-52
2023/07/04 00:26:40;;;;;;;2.15;1.88;;;;;;;16.81;100.00;98314.09;4139833;28;20229;-52
2023/07/04 00:28:42;;;;;;;2.20;1.50;;;;;;;16.73;100.00;98315.56;4136610;28;20268;-52
2023/07/04 00:30:45;;;;;;;1.90;1.50;;;;;;;16.69;100.00;98314.50;4150683;28;20264;-52
2023/07/04 00:32:47;;;;;;;1.60;1.50;;;;;;;16.72;100.00;98324.16;4151525;28;20248;-52
2023/07/04 00:34:50;;;;;;;2.53;1.85;;;;;;;16.71;100.00;98326.13;4151652;28;20216;-52
2023/07/04 00:36:51;;;;;;;2.72;1.30;;;;;;;16.68;100.00;98323.13;4138357;28;20229;-53
2023/07/04 00:38:55;;;;;;;1.45;1.35;;;;;;;16.70;100.00;98324.44;4150465;28;20292;-52
2023/07/04 00:40:57;;;;;;;1.60;1.30;;;;;;;16.72;100.00;98325.00;4139544;28;20205;-54
2023/07/04 00:43:09;;;;;;;2.67;1.50;;;;;;;16.63;100.00;98321.22;4138093;28;20205;-52
2023/07/04 00:45:19;;;;;;;8.18;2.25;;;;;;;16.63;100.00;98326.72;4139126;28;20213;-52
2023/07/04 00:47:32;;;;;;;1.52;1.40;;;;;;;16.55;100.00;98323.81;4142783;28;20227;-52
2023/07/04 00:49:42;;;;;;;4.25;1.50;;;;;;;16.52;100.00;98321.63;4152373;28;20213;-53
2023/07/04 00:51:47;;;;;;;1.75;1.25;;;;;;;16.52;100.00;98324.38;4143023;28;20205;-53
2023/07/04 00:53:53;;;;;;;1.30;1.15;;;;;;;16.48;100.00;98324.16;4140590;28;20218;-52
2023/07/04 00:55:58;;;;;;;1.63;1.45;;;;;;;16.53;100.00;98326.03;4151818;28;20254;-53
2023/07/04 00:58:04;;;;;;;2.15;1.25;;;;;;;16.55;100.00;98326.56;4154176;28;20208;-52
2023/07/04 01:00:23;;;;;;;1.95;1.42;;;;;;;16.56;100.00;98331.78;4137779;28;20213;-52
2023/07/04 01:02:29;;;;;;;1.55;1.45;;;;;;;16.50;100.00;98332.97;4141774;28;20209;-52
2023/07/04 01:04:32;;;;;;;1.45;1.35;;;;;;;16.49;100.00;98331.31;4124003;28;20202;-52
2023/07/04 01:06:39;;;;;;;2.08;1.88;;;;;;;16.46;100.00;98336.59;4152055;28;20892;-52
2023/07/04 01:08:43;;;;;;;1.52;1.15;;;;;;;16.46;100.00;98337.44;4152044;28;20233;-52
2023/07/04 01:10:46;;;;;;;1.90;1.60;;;;;;;16.37;100.00;98338.31;4143640;28;20198;-52
2023/07/04 01:12:48;;;;;;;3.28;1.40;;;;;;;16.34;100.00;98334.22;4124637;28;20213;-52
2023/07/04 01:14:53;;;;;;;2.63;1.60;;;;;;;16.27;100.00;98339.25;4147411;28;20229;-53
2023/07/04 01:16:56;;;;;;;1.80;1.38;;;;;;;16.25;100.00;98330.44;4151872;28;20671;-53
2023/07/04 01:18:58;;;;;;;2.92;1.20;;;;;;;16.19;100.00;98331.59;4135838;28;20214;-52
2023/07/04 01:21:01;;;;;;;1.65;1.40;;;;;;;16.26;100.00;98337.59;4139560;28;20252;-52
2023/07/04 01:23:18;;;;;;;2.30;2.10;;;;;;;16.21;100.00;98345.94;4152769;28;20215;-52
2023/07/04 01:25:30;;;;;;;2.40;1.45;;;;;;;16.20;100.00;98348.97;4140644;28;20264;-52
2023/07/04 01:27:32;;;;;;;2.08;1.50;;;;;;;16.17;100.00;98352.31;4138065;28;20233;-52
2023/07/04 01:29:36;;;;;;;4.18;1.52;;;;;;;16.17;100.00;98360.63;4140018;28;20209;-52
2023/07/04 01:31:38;;;;;;;1.92;1.63;;;;;;;16.16;100.00;98362.53;4150283;28;20217;-52
2023/07/04 01:33:40;;;;;;;2.78;1.75;;;;;;;16.20;100.00;98355.34;4144384;28;20206;-52
2023/07/04 01:35:43;;;;;;;2.05;1.60;;;;;;;16.09;100.00;98358.47;4137670;28;20235;-53
2023/07/04 01:37:45;;;;;;;4.63;1.73;;;;;;;16.09;100.00;98355.72;4141667;28;20584;-52
2023/07/04 01:39:47;;;;;;;2.38;1.50;;;;;;;16.08;100.00;98357.66;4138250;28;20218;-53
2023/07/04 01:41:49;;;;;;;2.97;1.33;;;;;;;15.99;100.00;98356.63;4142656;28;20750;-53
2023/07/04 01:44:00;;;;;;;1.60;1.50;;;;;;;15.89;100.00;98369.69;4143919;28;20687;-52
2023/07/04 01:46:01;;;;;;;2.38;1.38;;;;;;;15.97;100.00;98358.81;4140025;28;20765;-52
2023/07/04 01:48:04;;;;;;;1.48;1.35;;;;;;;15.95;100.00;98357.50;4140937;28;20633;-53
2023/07/04 01:50:07;;;;;;;3.13;1.30;;;;;;;15.85;100.00;98369.44;4150328;28;20672;-53
2023/07/04 01:52:09;;;;;;;1.50;1.33;;;;;;;15.88;100.00;98374.38;4139418;28;20645;-53
2023/07/04 01:54:17;;;;;;;2.47;1.83;;;;;;;15.77;100.00;98375.53;4137501;28;20245;-53
2023/07/04 01:56:19;;;;;;;3.75;2.00;;;;;;;15.69;100.00;98373.41;4143493;28;20287;-52
2023/07/04 01:58:21;;;;;;;2.38;1.45;;;;;;;15.73;100.00;98381.94;4139004;28;20627;-52
2023/07/04 02:00:23;;;;;;;2.30;1.60;;;;;;;15.72;100.00;98386.63;4141495;28;20638;-52
2023/07/04 02:02:24;;;;;;;2.65;1.63;;;;;;;15.74;100.00;98384.41;4151723;28;20202;-52
2023/07/04 02:04:26;;;;;;;1.98;1.73;;;;;;;15.62;100.00;98391.41;4140997;28;20218;-52
2023/07/04 02:06:29;;;;;;;2.10;1.65;;;;;;;15.67;100.00;98394.94;4126485;28;20234;-52
2023/07/04 02:08:30;;;;;;;3.67;1.73;;;;;;;15.72;100.00;98391.31;4138545;28;20256;-52
2023/07/04 02:10:32;;;;;;;2.25;1.60;;;;;;;15.77;100.00;98392.09;4143870;28;20293;-52
2023/07/04 02:12:34;;;;;;;2.67;1.98;;;;;;;15.70;100.00;98394.34;4143734;28;20209;-53
2023/07/04 02:14:36;;;;;;;2.10;1.50;;;;;;;15.71;100.00;98390.47;4127437;28;20206;-53
2023/07/04 02:16:38;;;;;;;2.13;1.60;;;;;;;15.57;100.00;98392.22;4143373;28;20602;-53
2023/07/04 02:18:40;;;;;;;1.83;1.73;;;;;;;15.39;100.00;98395.66;4141245;28;20626;-53
2023/07/04 02:20:42;;;;;;;1.90;1.70;;;;;;;15.26;100.00;98395.41;4138389;28;20201;-52
2023/07/04 02:22:43;;;;;;;2.05;1.85;;;;;;;15.30;100.00;98400.06;4150711;28;20550;-52
2023/07/04 02:24:45;;;;;;;1.77;1.67;;;;;;;15.27;100.00;98395.13;4154364;28;20209;-52
2023/07/04 02:26:47;;;;;;;1.83;1.52;;;;;;;15.24;100.00;98401.19;4150149;28;20596;-52
2023/07/04 02:28:49;;;;;;;2.78;2.10;;;;;;;15.33;100.00;98399.53;4137053;28;20279;-52
2023/07/04 02:30:55;;;;;;;1.45;1.35;;;;;;;15.25;100.00;98402.03;4140056;28;20210;-53
2023/07/04 02:32:57;;;;;;;1.92;1.73;;;;;;;15.29;100.00;98403.94;4142152;28;20300;-53
2023/07/04 02:34:59;;;;;;;2.22;1.83;;;;;;;15.26;100.00;98407.28;4142817;28;20304;-52
2023/07/04 02:37:01;;;;;;;2.72;2.53;;;;;;;15.29;100.00;98406.69;4153112;28;20737;-52
2023/07/04 02:39:03;;;;;;;2.13;1.77;;;;;;;15.18;100.00;98405.09;4170950;28;20335;-52
2023/07/04 02:41:05;;;;;;;4.40;1.95;;;;;;;15.20;100.00;98399.28;4136723;28;20311;-52
2023/07/04 02:43:07;;;;;;;2.45;1.52;;;;;;;15.20;100.00;98396.53;4151306;28;20209;-52
2023/07/04 02:45:09;;;;;;;2.10;1.90;;;;;;;15.12;100.00;98403.47;4142312;28;20218;-52
2023/07/04 02:47:11;;;;;;;2.70;1.88;;;;;;;15.11;100.00;98395.47;4142535;28;20568;-52
2023/07/04 02:49:13;;;;;;;2.00;1.70;;;;;;;15.11;100.00;98396.28;4138460;28;20228;-52
2023/07/04 02:51:15;;;;;;;8.13;1.95;;;;;;;15.14;100.00;98398.50;4139562;28;20205;-52
2023/07/04 02:53:21;;;;;;;1.45;1.35;;;;;;;15.15;100.00;98411.16;4142271;28;20295;-53
2023/07/04 02:55:23;;;;;;;2.53;2.00;;;;;;;15.13;100.00;98405.13;4133028;28;20210;-52
2023/07/04 02:57:24;;;;;;;1.90;1.65;;;;;;;15.13;100.00;98402.38;4138811;28;20693;-52
2023/07/04 02:59:26;;;;;;;1.60;1.50;;;;;;;15.07;100.00;98400.72;4124716;28;20674;-52
2023/07/04 03:01:29;;;;;;;5.55;1.67;;;;;;;15.03;100.00;98407.91;4142510;28;20236;-53
2023/07/04 03:03:31;;;;;;;1.80;1.50;;;;;;;15.05;100.00;98404.88;4138754;28;21276;-53
2023/07/04 03:05:35;;;;;;;1.90;1.80;;;;;;;15.03;100.00;98401.59;4144026;28;20213;-52
2023/07/04 03:07:37;;;;;;;2.95;1.88;;;;;;;15.00;100.00;98405.72;4151981;28;20208;-53
2023/07/04 03:09:39;;;;;;;1.80;1.52;;;;;;;14.91;100.00;98401.88;4141570;28;20205;-52
2023/07/04 03:11:41;;;;;;;2.63;1.67;;;;;;;14.90;100.00;98408.50;4139553;28;20260;-52
2023/07/04 03:13:43;;;;;;;6.03;1.75;;;;;;;14.81;100.00;98401.91;4139410;28;20209;-52
2023/07/04 03:15:45;;;;;;;1.90;1.70;;;;;;;14.74;100.00;98395.03;4149448;28;20296;-53
2023/07/04 03:17:47;;;;;;;2.85;2.08;;;;;;;14.68;100.00;98399.75;4138024;28;20214;-52
2023/07/04 03:19:49;;;;;;;1.65;1.55;;;;;;;14.61;100.00;98404.72;4150065;28;20263;-52
2023/07/04 03:21:51;;;;;;;2.15;1.95;;;;;;;14.68;100.00;98405.25;4136394;28;20217;-52
2023/07/04 03:23:53;;;;;;;1.65;1.52;;;;;;;14.67;100.00;98400.84;4133476;28;20240;-53
2023/07/04 03:25:54;;;;;;;1.70;1.60;;;;;;;14.65;100.00;98413.25;4153646;28;20691;-52
2023/07/04 03:27:56;;;;;;;3.83;1.75;;;;;;;14.62;100.00;98414.63;4137979;28;20237;-54
2023/07/04 03:29:59;;;;;;;3.30;2.10;;;;;;;14.61;100.00;98413.00;4137903;28;20206;-53
2023/07/04 03:32:00;;;;;;;3.67;1.17;;;;;;;14.59;100.00;98409.69;4148780;28;20217;-52
2023/07/04 03:34:02;;;;;;;2.45;1.80;;;;;;;14.51;100.00;98415.75;4149358;28;20227;-53
2023/07/04 03:36:06;;;;;;;2.38;1.50;;;;;;;14.56;100.00;98415.75;4135922;28;20225;-52
2023/07/04 03:38:07;;;;;;;1.85;1.70;;;;;;;14.56;100.00;98404.72;4153334;28;20750;-53
2023/07/04 03:40:11;;;;;;;2.15;1.75;;;;;;;14.59;100.00;98408.84;4142988;28;20699;-52
2023/07/04 03:42:12;;;;;;;4.93;2.00;;;;;;;14.48;100.00;98408.06;4152896;28;20209;-52
2023/07/04 03:44:14;;;;;;;3.30;1.90;;;;;;;14.43;100.00;98410.00;4134254;28;20752;-53
2023/07/04 03:46:19;;;;;;;2.83;1.60;;;;;;;14.44;100.00;98415.19;4137799;28;20253;-54
2023/07/04 03:48:22;;;;;;;4.07;1.92;;;;;;;14.41;100.00;98413.00;4138381;28;20248;-53
2023/07/04 03:50:24;;;;;;;2.53;1.80;;;;;;;14.41;100.00;98412.19;4137156;28;20219;-54
2023/07/04 03:52:26;;;;;;;2.60;1.85;;;;;;;14.36;100.00;98418.53;4141241;28;20626;-53
2023/07/04 03:54:28;;;;;;;2.03;1.83;;;;;;;14.29;100.00;98419.91;4149265;28;20664;-53
2023/07/04 03:56:29;;;;;;;3.75;1.95;;;;;;;14.34;100.00;98429.00;4142134;28;20235;-54
2023/07/04 03:58:31;;;;;;;2.03;1.77;;;;;;;14.27;100.00;98422.94;4155681;28;20568;-53
2023/07/04 04:00:33;;;;;;;1.90;1.70;;;;;;;14.26;100.00;98421.28;4138135;28;20209;-53
2023/07/04 04:02:35;;;;;;;2.10;1.90;;;;;;;14.23;100.00;98418.28;4138063;28;20222;-53
2023/07/04 04:04:39;;;;;;;2.72;2.20;;;;;;;14.20;100.00;98416.03;4150898;28;20227;-53
2023/07/04 04:06:41;;;;;;;3.45;2.08;;;;;;;14.17;100.00;98420.16;4137947;28;20237;-52
2023/07/04 04:08:43;;;;;;;2.67;1.58;;;;;;;14.19;100.00;98426.25;4137990;28;20230;-53
2023/07/04 04:10:45;;;;;;;2.33;1.88;;;;;;;14.19;100.00;98426.25;4121768;28;20209;-52
2023/07/04 04:12:47;;;;;;;2.08;1.58;;;;;;;14.17;100.00;98422.09;4123174;28;20319;-53
2023/07/04 04:14:50;;;;;;;3.05;2.10;;;;;;;14.14;100.00;98428.13;4139869;28;20219;-53
2023/07/04 04:16:52;;;;;;;2.30;1.73;;;;;;;14.10;100.00;98433.34;4142981;28;20967;-52
2023/07/04 04:18:54;;;;;;;2.03;1.83;;;;;;;14.13;100.00;98427.31;4137489;28;20351;-53
2023/07/04 04:20:56;;;;;;;3.22;1.85;;;;;;;14.13;100.00;98435.56;4138463;28;20595;-53
2023/07/04 04:22:58;;;;;;;2.70;1.55;;;;;;;14.12;100.00;98442.19;4135732;28;20213;-52
2023/07/04 04:25:00;;;;;;;3.15;2.10;;;;;;;14.18;100.00;98441.09;4143590;28;21861;-52
2023/07/04 04:27:07;;;;;;;2.28;1.95;;;;;;;14.18;100.00;98435.59;4153506;28;20341;-53
2023/07/04 04:29:09;;;;;;;2.30;2.10;;;;;;;14.18;100.00;98441.09;4135787;28;20253;-53
2023/07/04 04:31:11;;;;;;;2.47;2.20;;;;;;;14.22;100.00;98441.41;4135814;28;20718;-54
2023/07/04 04:33:16;;;;;;;2.70;2.50;;;;;;;14.16;100.00;98437.75;4138658;28;20206;-53
2023/07/04 04:35:19;;;;;;;7.88;2.40;;;;;;;14.22;100.00;98447.72;4150336;28;20244;-53
2023/07/04 04:37:23;;;;;;;3.00;2.63;;;;;;;14.17;100.00;98447.66;4143324;28;20233;-53
2023/07/04 04:39:29;;;;;;;1.77;1.65;;;;;;;14.17;100.00;98438.59;4142094;28;20295;-53
2023/07/04 04:41:31;;;;;;;3.78;2.92;;;;;;;14.17;100.00;98447.66;4147006;28;20240;-53
2023/07/04 04:43:36;;;;;;;3.63;2.63;;;;;;;14.28;100.00;98438.34;4148973;28;20216;-53
2023/07/04 04:45:39;;;;;;;3.22;2.55;;;;;;;14.30;100.00;98443.59;4134699;28;20253;-52
2023/07/04 04:47:48;;;;;;;2.50;1.83;;;;;;;14.41;100.00;98448.81;4133705;28;20213;-53
2023/07/04 04:49:51;;;;;;;3.75;2.30;;;;;;;14.16;100.00;98447.97;4137828;28;20232;-53
2023/07/04 04:51:53;;;;;;;5.28;3.17;;;;;;;14.23;100.00;98457.59;4132764;28;20707;-53
2023/07/04 04:53:55;;;;;;;2.20;2.00;;;;;;;14.37;100.00;98463.41;4120987;28;20210;-52
2023/07/04 04:55:57;;;;;;;2.80;2.58;;;;;;;14.32;100.00;98458.72;4134070;28;20226;-53
2023/07/04 04:57:59;;;;;;;3.78;2.67;;;;;;;14.36;100.00;98459.81;4141559;28;20598;-52
2023/07/04 05:00:00;;;;;;;4.20;2.70;;;;;;;14.32;100.00;98458.72;4147856;28;20204;-53
2023/07/04 05:02:03;;;;;;;3.40;2.63;;;;;;;14.38;100.00;98456.78;4145419;28;20228;-53
2023/07/04 05:04:05;;;;;;;15.38;4.28;;;;;;;14.13;100.00;98460.34;4134667;28;20335;-53
2023/07/04 05:06:07;;;;;;;3.92;3.53;;;;;;;14.33;100.00;98456.78;4138378;28;20224;-53
2023/07/04 05:08:08;;;;;;;13.65;4.25;;;;;;;14.34;100.00;98462.03;4136029;28;20209;-52
2023/07/04 05:10:10;;;;;;;12.05;3.67;;;;;;;14.37;100.00;98457.91;4135424;28;20208;-53
2023/07/04 05:12:12;;;;;;;4.68;3.47;;;;;;;14.41;100.00;98462.56;4139404;28;20221;-53
2023/07/04 05:14:14;;;;;;;5.35;3.30;;;;;;;14.51;100.00;98462.56;4152048;28;20227;-52
2023/07/04 05:16:18;;;;;;;4.28;3.20;;;;;;;14.60;100.00;98460.91;4123611;28;20237;-52
2023/07/04 05:18:20;;;;;;;8.80;3.63;;;;;;;14.73;100.00;98467.78;4152852;28;20232;-52
2023/07/04 05:20:24;;;;;;;4.55;3.05;;;;;;;14.84;100.00;98467.47;4138908;28;20724;-52
2023/07/04 05:22:26;;;;;;;6.68;3.25;;;;;;;14.82;100.00;98460.63;4120318;28;20218;-52
2023/07/04 05:24:30;;;;;;;4.50;3.97;;;;;;;14.95;100.00;98460.84;4149191;28;20252;-52
2023/07/04 05:26:31;;;;;;;5.57;3.80;;;;;;;15.06;100.00;98459.72;4142352;28;20237;-52
2023/07/04 05:28:34;;;;;;;3.53;3.25;;;;;;;15.19;100.00;98469.31;4134757;28;20245;-52
2023/07/04 05:30:35;;;;;;;3.50;3.20;;;;;;;15.24;100.00;98472.88;4151866;28;20668;-52
2023/07/04 05:32:37;;;;;;;5.80;2.92;;;;;;;15.44;100.00;98470.06;4143022;28;20213;-54
2023/07/04 05:34:39;;;;;;;3.78;3.47;;;;;;;15.54;100.00;98472.81;4142853;28;20260;-53
2023/07/04 05:36:41;;;;;;;7.50;3.13;;;;;;;15.69;100.00;98478.22;4139008;28;20236;-52
2023/07/04 05:38:43;;;;;;;5.25;3.15;;;;;;;15.87;100.00;98476.75;4154768;28;20215;-52
2023/07/04 05:40:45;;;;;;;4.30;2.90;;;;;;;16.00;100.00;98482.47;4153269;28;20219;-52
2023/07/04 05:42:47;;;;;;;8.10;3.80;;;;;;;15.96;100.00;98475.88;4139874;28;20228;-52
2023/07/04 05:44:49;;;;;;;3.08;2.58;;;;;;;16.13;100.00;98481.00;4138465;28;20209;-52
2023/07/04 05:46:54;;;;;;;12.73;3.00;;;;;;;16.14;100.00;98480.72;4151978;28;20314;-52
2023/07/04 05:48:57;;;;;;;3.38;2.65;;;;;;;16.46;100.00;98477.47;4153008;28;20233;-53
2023/07/04 05:51:01;;;;;;;3.83;2.50;;;;;;;16.65;100.00;98473.75;4143815;28;20668;-53
2023/07/04 05:53:03;;;;;;;3.67;3.28;;;;;;;16.77;100.00;98476.91;4139351;28;20209;-52
2023/07/04 05:55:05;;;;;;;7.90;4.25;;;;;;;16.73;100.00;98481.41;4138112;28;20213;-52
2023/07/04 05:57:07;;;;;;;6.53;2.90;;;;;;;16.84;100.00;98482.94;4135369;28;20233;-53
2023/07/04 05:59:09;;;;;;;7.30;3.50;;;;;;;17.09;100.00;98479.91;4137696;28;20241;-52
2023/07/04 06:01:18;;;;;;;6.97;3.42;;;;;;;17.27;100.00;98470.88;4154047;28;20212;-53
2023/07/04 06:03:33;;;;;;;3.95;2.95;;;;;;;17.41;100.00;98477.38;4142102;28;20247;-52
2023/07/04 06:06:40;;;;;;;6.70;3.88;;;;;;;17.37;100.00;98476.31;4141528;28;20221;-52
2023/07/04 06:09:07;;;;;;;5.00;2.88;;;;;;;17.41;99.53;98482.91;4140224;28;20284;-52
2023/07/04 06:11:50;;;;;;;3.55;2.60;;;;;;;17.31;93.75;98488.53;4152483;28;20206;-52
2023/07/04 06:13:54;;;;;;;5.63;2.92;;;;;;;17.35;90.69;98484.06;4154230;28;20297;-53
2023/07/04 06:16:17;;;;;;;5.63;3.03;;;;;;;17.35;91.12;98484.06;4141449;28;20242;-51
2023/07/04 06:18:23;;;;;;;8.10;3.13;;;;;;;17.58;91.69;98492.38;4135511;28;20217;-53
2023/07/04 06:20:44;;;;;;;5.22;3.53;;;;;;;17.66;89.61;98490.91;4139232;28;20205;-52
2023/07/04 06:23:09;;;;;;;4.78;2.83;;;;;;;17.54;87.58;98487.72;4134906;28;20869;-52
2023/07/04 06:25:13;;;;;;;4.00;2.45;;;;;;;17.49;87.08;98490.56;4143293;28;20212;-52
2023/07/04 06:27:15;;;;;;;6.35;3.50;;;;;;;17.65;86.88;98483.72;4135928;28;20229;-52
2023/07/04 06:29:17;;;;;;;4.88;2.88;;;;;;;17.88;85.95;98488.38;4134736;28;21039;-51
2023/07/04 06:31:19;;;;;;;4.60;2.63;;;;;;;18.13;85.03;98491.63;4134885;28;20216;-52
2023/07/04 06:33:21;;;;;;;5.82;2.97;;;;;;;18.40;84.46;98490.97;4135963;28;20267;-52
2023/07/04 06:35:23;;;;;;;6.72;2.55;;;;;;;18.48;82.06;98487.53;4139534;28;20247;-52
2023/07/04 06:37:25;;;;;;;3.78;2.28;;;;;;;18.70;81.97;98485.75;4136034;28;20697;-52
2023/07/04 06:39:27;;;;;;;4.88;2.35;;;;;;;18.59;76.01;98483.47;4158892;28;20205;-52
2023/07/04 06:41:29;;;;;;;7.70;2.78;;;;;;;18.51;75.64;98492.47;4155281;28;20752;-51
2023/07/04 06:43:32;;;;;;;3.97;2.38;;;;;;;18.54;73.93;98500.19;4133840;28;20614;-52
2023/07/04 06:45:37;;;;;;;4.18;2.58;;;;;;;18.62;75.15;98488.41;4148697;28;20234;-52
2023/07/04 06:47:39;;;;;;;3.97;2.25;;;;;;;19.03;74.62;98497.66;4135258;28;20209;-52
2023/07/04 06:49:42;;;;;;;6.18;2.50;;;;;;;19.29;72.81;98499.69;4135171;28;20276;-51
2023/07/04 06:51:45;;;;;;;4.65;2.70;;;;;;;19.41;73.17;98501.97;4136449;28;20633;-52
2023/07/04 06:53:50;;;;;;;4.82;1.95;;;;;;;19.63;71.70;98505.69;4122249;28;20233;-52
2023/07/04 06:56:04;;;;;;;3.50;1.95;;;;;;;19.53;71.16;98502.28;4145653;28;20303;-51
2023/07/04 06:58:08;;;;;;;5.38;2.15;;;;;;;19.55;67.81;98508.34;4133049;28;20205;-52
2023/07/04 07:00:11;;;;;;;3.90;2.33;;;;;;;19.58;66.02;98507.75;4141578;28;20297;-51
2023/07/04 07:02:14;;;;;;;4.68;2.38;;;;;;;19.76;66.08;98509.56;4154332;28;20212;-52
2023/07/04 07:04:44;;;;;;;5.10;2.47;;;;;;;19.95;65.80;98510.28;4137845;28;20216;-52
2023/07/04 07:07:11;;;;;;;6.60;2.78;;;;;;;20.08;65.03;98509.47;4138589;28;20228;-51
2023/07/04 07:09:15;;;;;;;5.97;2.35;;;;;;;20.05;64.39;98510.91;4134064;28;20275;-51
2023/07/04 07:11:23;;;;;;;6.63;2.22;;;;;;;20.07;65.15;98516.16;4136054;28;20212;-51
2023/07/04 07:13:25;;;;;;;4.75;2.42;;;;;;;20.35;65.13;98512.19;4137520;28;20205;-51
2023/07/04 07:15:27;;;;;;;4.60;2.20;;;;;;;19.98;65.02;98513.25;4156634;28;20299;-51
2023/07/04 07:17:32;;;;;;;9.95;2.30;;;;;;;19.76;65.11;98509.56;4136353;28;20236;-52
2023/07/04 07:19:38;;;;;;;2.17;1.75;;;;;;;20.08;65.86;98506.69;4149898;28;20557;-52
2023/07/04 07:21:41;;;;;;;5.53;2.60;;;;;;;20.31;64.47;98522.31;4133614;28;20267;-51
2023/07/04 07:23:44;;;;;;;5.95;2.30;;;;;;;20.03;63.54;98512.31;4138485;28;20746;-52
2023/07/04 07:25:53;;;;;;;5.22;2.88;;;;;;;20.26;65.61;98519.63;4147871;28;20204;-52
2023/07/04 07:27:57;;;;;;;6.53;3.00;;;;;;;20.55;63.98;98511.72;4145991;28;20648;-52
2023/07/04 07:29:59;;;;;;;8.50;2.20;;;;;;;20.45;62.69;98511.97;4138261;28;20228;-53
2023/07/04 07:32:06;;;;;;;4.07;2.00;;;;;;;20.33;63.31;98514.47;4149885;28;20199;-52
2023/07/04 07:34:08;;;;;;;6.78;2.72;;;;;;;20.25;62.06;98512.44;4140008;28;21042;-51
2023/07/04 07:36:15;;;;;;;4.10;2.45;;;;;;;20.24;62.51;98525.50;4141093;28;20233;-51
2023/07/04 07:38:17;;;;;;;4.15;2.17;;;;;;;20.28;63.17;98522.91;4134795;28;20228;-52
2023/07/04 07:40:19;;;;;;;4.72;2.10;;;;;;;20.21;63.95;98516.97;4138194;28;20209;-51
2023/07/04 07:42:21;;;;;;;4.78;2.90;;;;;;;20.37;63.92;98521.88;4135142;28;20244;-51
2023/07/04 07:44:23;;;;;;;3.55;2.55;;;;;;;19.93;61.82;98526.44;4124121;28;20876;-52
2023/07/04 07:46:25;;;;;;;5.35;2.22;;;;;;;19.76;62.73;98520.69;4125582;28;20237;-51
2023/07/04 07:48:27;;;;;;;5.05;2.60;;;;;;;19.92;62.31;98524.81;4123135;28;20566;-51
2023/07/04 07:50:29;;;;;;;3.28;2.30;;;;;;;19.68;63.85;98518.63;4125148;28;20699;-51
2023/07/04 07:52:31;;;;;;;7.65;2.70;;;;;;;20.04;62.60;98514.00;4149646;28;20271;-51
2023/07/04 07:54:35;;;;;;;3.85;1.90;;;;;;;20.29;64.60;98524.56;4137377;28;20205;-51
2023/07/04 07:56:44;;;;;;;4.30;2.22;;;;;;;20.24;61.91;98516.34;4140823;28;20224;-50
2023/07/04 07:58:46;;;;;;;5.35;2.55;;;;;;;20.47;63.13;98516.09;4135704;28;20250;-50
2023/07/04 08:00:48;;;;;;;5.80;2.40;;;;;;;21.04;62.58;98514.44;4139773;28;20220;-50
2023/07/04 08:02:51;;;;;;;3.67;2.28;;;;;;;21.27;60.14;98513.25;4123746;28;20214;-51
2023/07/04 08:04:53;;;;;;;3.63;2.38;;;;;;;21.25;58.64;98516.34;4148804;28;20295;-51
2023/07/04 08:06:55;;;;;;;7.50;2.38;;;;;;;21.34;59.63;98519.19;4132885;28;20576;-50
2023/07/04 08:08:58;;;;;;;5.38;2.88;;;;;;;21.50;58.93;98512.88;4144376;28;20672;-50
2023/07/04 08:11:02;;;;;;;3.55;2.15;;;;;;;21.40;58.29;98515.13;4135501;28;20224;-51
2023/07/04 08:13:04;;;;;;;4.53;2.72;;;;;;;21.74;57.12;98506.94;4134299;28;20240;-50
2023/07/04 08:15:07;;;;;;;8.50;2.80;;;;;;;21.67;57.40;98501.00;4141522;28;20207;-50
2023/07/04 08:17:09;;;;;;;11.18;2.38;;;;;;;21.57;56.79;98518.00;4144426;28;20267;-50
2023/07/04 08:19:19;;;;;;;3.40;1.95;;;;;;;21.14;56.16;98514.97;4131722;28;20213;-50
2023/07/04 08:21:27;;;;;;;3.15;1.90;;;;;;;21.27;57.14;98521.59;4135452;28;20205;-50
2023/07/04 08:23:30;;;;;;;4.72;2.40;;;;;;;21.17;56.66;98517.13;4152922;28;20211;-51
2023/07/04 08:25:37;;;;;;;4.35;2.75;;;;;;;21.49;57.17;98510.41;4148895;28;20231;-51
2023/07/04 08:27:38;;;;;;;4.10;1.98;;;;;;;21.84;55.45;98513.03;4142331;28;20211;-51
2023/07/04 08:29:40;;;;;;;4.82;1.92;;;;;;;22.16;56.98;98515.41;4143779;28;20221;-50
2023/07/04 08:31:42;;;;;;;5.13;2.08;;;;;;;22.33;53.93;98509.06;4138291;28;20646;-50
2023/07/04 08:33:45;;;;;;;4.13;2.47;;;;;;;22.13;54.17;98513.28;4151324;28;20223;-51
2023/07/04 08:36:14;;;;;;;3.53;2.05;;;;;;;22.56;53.59;98516.19;4141573;28;20725;-50
2023/07/04 08:38:16;;;;;;;6.63;2.15;;;;;;;22.47;53.53;98515.31;4136442;28;20252;-50
2023/07/04 08:40:18;;;;;;;4.68;2.30;;;;;;;22.45;53.63;98498.09;4151687;28;20204;-50
2023/07/04 08:42:21;;;;;;;5.13;1.90;;;;;;;22.90;52.62;98510.59;4138057;28;20638;-50
2023/07/04 08:44:24;;;;;;;3.47;1.98;;;;;;;23.12;52.68;98505.63;4138229;28;20287;-50
2023/07/04 08:46:33;;;;;;;4.97;2.22;;;;;;;22.07;50.96;98505.41;4151561;28;20349;-50
2023/07/04 08:48:36;;;;;;;2.83;2.20;;;;;;;22.33;51.90;98509.06;4149494;28;20204;-50
2023/07/04 08:50:38;;;;;;;4.60;2.35;;;;;;;22.65;51.07;98511.41;4151946;28;20221;-50
2023/07/04 08:52:58;;;;;;;5.10;1.90;;;;;;;22.43;49.59;98508.78;4145401;28;20223;-50
2023/07/04 08:55:00;;;;;;;6.28;1.95;;;;;;;22.65;50.98;98505.81;4131951;28;20205;-50
2023/07/04 08:57:24;;;;;;;3.38;1.80;;;;;;;23.25;49.61;98506.59;4139413;28;20283;-50
2023/07/04 08:59:41;;;;;;;3.38;2.13;;;;;;;23.55;49.99;98514.72;4150545;28;20215;-50
2023/07/04 09:01:58;;;;;;;5.57;2.10;;;;;;;23.59;47.57;98506.50;4147616;28;20200;-51
2023/07/04 09:04:06;;;;;;;3.50;2.08;;;;;;;23.58;48.10;98513.25;4152415;28;20204;-51
2023/07/04 09:06:26;;;;;;;3.42;2.72;;;;;;;23.78;49.65;98502.94;4155697;28;20693;-50
2023/07/04 09:08:33;;;;;;;3.97;2.03;;;;;;;23.84;47.14;98512.78;4137696;28;20240;-50
2023/07/04 09:10:41;;;;;;;6.55;1.80;;;;;;;23.38;44.29;98514.75;4151786;28;20220;-50
2023/07/04 09:12:43;;;;;;;8.30;2.30;;;;;;;23.19;45.28;98510.72;4141246;28;20211;-51
2023/07/04 09:14:54;;;;;;;8.95;2.65;;;;;;;23.10;45.42;98515.47;4154843;28;20212;-50
2023/07/04 09:16:57;;;;;;;2.58;1.60;;;;;;;23.62;44.94;98525.38;4137196;28;20863;-50
2023/07/04 09:19:05;;;;;;;2.45;1.58;;;;;;;23.71;44.52;98512.19;4141341;28;20292;-54
2023/07/04 09:21:12;;;;;;;2.67;1.65;;;;;;;23.93;45.21;98510.00;4150252;28;20199;-50
2023/07/04 09:23:15;;;;;;;4.63;2.20;;;;;;;23.98;45.16;98507.81;4146418;28;20207;-51
2023/07/04 09:25:20;;;;;;;3.35;2.08;;;;;;;23.98;44.59;98511.78;4135210;28;20213;-51
2023/07/04 09:27:24;;;;;;;2.25;1.58;;;;;;;24.11;44.49;98514.31;4120106;28;20712;-50
2023/07/04 09:29:26;;;;;;;2.50;2.00;;;;;;;23.63;44.42;98513.88;4134801;28;20204;-51
2023/07/04 09:31:32;;;;;;;2.42;1.55;;;;;;;23.41;45.00;98516.91;4138011;28;20891;-51
2023/07/04 09:33:35;;;;;;;5.53;1.98;;;;;;;23.62;44.81;98511.41;4148534;28;20219;-51
2023/07/04 09:35:37;;;;;;;2.67;1.60;;;;;;;24.05;43.50;98504.47;4152367;28;20195;-51
2023/07/04 09:38:01;;;;;;;2.50;1.77;;;;;;;23.92;44.69;98513.13;4166296;28;20211;-50
2023/07/04 09:40:04;;;;;;;2.78;2.00;;;;;;;24.47;43.83;98509.78;4136634;28;20219;-51
2023/07/04 09:42:07;;;;;;;4.07;2.50;;;;;;;24.72;43.81;98508.81;4134546;28;20220;-57